Time;durP1;ratioP1;P1;durP2;ratioP2;P2;SDS_P1;SDS_P2;PMS_P1;PMS_P2;Temp;Humidity;BMP_temperature;BMP_pressure;BME280_temperature;BME280_humidity;BME280_pressure;Samples;Min_cycle;Max_cycle;Signal;HPM_P1;HPM_P2
2023/04/02 00:00:08;;;;;;;7.07;1.27;;;2.90;68.00;;;;;;4099607;28;20035;-83
2023/04/02 00:02:30;;;;;;;8.38;1.27;;;2.90;68.10;;;;;;4104201;28;20039;-84
2023/04/02 00:05:17;;;;;;;3.45;1.08;;;2.90;68.20;;;;;;4125906;28;20432;-85
2023/04/02 00:07:39;;;;;;;5.40;1.30;;;2.90;68.30;;;;;;4117068;28;20030;-85
2023/04/02 00:10:00;;;;;;;5.95;1.10;;;2.90;68.30;;;;;;4118904;28;20127;-84
2023/04/02 00:12:20;;;;;;;4.10;1.30;;;2.90;68.30;;;;;;4103478;28;20134;-84
2023/04/02 00:14:46;;;;;;;6.05;1.40;;;2.90;68.10;;;;;;4101601;28;21889;-84
2023/04/02 00:17:07;;;;;;;5.35;1.33;;;2.90;68.20;;;;;;4100693;28;20468;-84
2023/04/02 00:19:41;;;;;;;5.75;1.58;;;2.80;68.30;;;;;;4120749;28;20472;-85
2023/04/02 00:22:06;;;;;;;9.50;1.50;;;2.90;68.50;;;;;;4118571;28;20461;-85
2023/04/02 00:24:27;;;;;;;6.63;1.33;;;2.80;68.50;;;;;;4117477;28;20576;-84
2023/04/02 00:26:51;;;;;;;5.78;1.45;;;2.80;69.50;;;;;;4116112;28;20918;-84
2023/04/02 00:29:13;;;;;;;6.93;1.63;;;2.80;69.00;;;;;;4098975;28;20042;-85
2023/04/02 00:31:17;;;;;;;9.20;1.48;;;2.80;69.40;;;;;;4101769;28;20154;-85
2023/04/02 00:33:25;;;;;;;7.25;1.67;;;2.70;69.80;;;;;;4130303;28;20388;-83
2023/04/02 00:35:27;;;;;;;7.32;1.33;;;2.60;70.90;;;;;;4116451;28;20306;-84
2023/04/02 00:37:37;;;;;;;9.13;1.70;;;2.70;71.00;;;;;;4118461;28;20031;-85
2023/04/02 00:40:03;;;;;;;6.85;1.67;;;2.60;71.20;;;;;;4117215;28;20400;-84
2023/04/02 00:42:24;;;;;;;6.43;1.30;;;2.60;71.40;;;;;;4115931;28;20065;-84
2023/04/02 00:44:47;;;;;;;4.22;1.10;;;2.60;71.50;;;;;;4118969;28;20483;-85
2023/04/02 00:47:14;;;;;;;6.78;1.48;;;2.60;71.60;;;;;;4119914;28;20047;-84
2023/04/02 00:49:40;;;;;;;10.63;1.65;;;2.60;71.80;;;;;;4112198;28;20483;-84
2023/04/02 00:52:09;;;;;;;6.95;1.17;;;2.50;72.30;;;;;;4113286;28;20035;-84
2023/04/02 00:54:36;;;;;;;5.68;1.48;;;2.60;72.60;;;;;;4115846;28;20524;-84
2023/04/02 00:57:03;;;;;;;7.50;1.55;;;2.50;73.00;;;;;;4101559;28;20084;-85
2023/04/02 00:59:32;;;;;;;8.00;1.48;;;2.50;73.30;;;;;;4109087;28;20030;-84
2023/04/02 01:01:36;;;;;;;8.18;1.80;;;2.50;73.40;;;;;;4113120;28;20496;-85
2023/04/02 01:03:37;;;;;;;4.28;1.35;;;2.50;73.50;;;;;;4096268;28;20058;-84
2023/04/02 01:05:39;;;;;;;5.18;1.05;;;2.50;73.50;;;;;;4114867;28;20487;-83
2023/04/02 01:08:11;;;;;;;9.13;1.20;;;2.50;73.50;;;;;;4117382;28;20039;-85
2023/04/02 01:10:32;;;;;;;9.18;1.80;;;2.40;73.30;;;;;;4111786;28;20027;-84
2023/04/02 01:13:05;;;;;;;4.18;0.90;;;2.40;73.00;;;;;;4113663;28;20034;-84
2023/04/02 01:15:16;;;;;;;4.65;1.20;;;2.40;72.40;;;;;;4126600;28;20030;-85
2023/04/02 01:18:01;;;;;;;5.20;0.93;;;2.30;70.90;;;;;;4097919;28;20592;-85
2023/04/02 01:20:26;;;;;;;3.58;1.15;;;2.40;69.70;;;;;;4077869;29;20391;-84
2023/04/02 01:22:44;;;;;;;5.47;1.30;;;2.40;68.70;;;;;;4074540;29;20462;-85
2023/04/02 01:24:48;;;;;;;7.00;0.93;;;2.30;68.50;;;;;;4078089;29;20509;-84
2023/04/02 01:27:11;;;;;;;5.03;1.20;;;2.40;68.70;;;;;;4075604;29;20063;-85
2023/04/02 01:29:25;;;;;;;6.63;1.23;;;2.40;68.90;;;;;;4077618;29;20095;-84
2023/04/02 01:31:26;;;;;;;;;;;2.40;68.90;;;;;;4079466;29;20640;-84
2023/04/02 01:33:34;;;;;;;3.22;1.05;;;2.40;68.90;;;;;;4065038;29;20519;-84
2023/04/02 01:35:39;;;;;;;5.47;0.85;;;2.40;68.80;;;;;;4079637;29;20056;-84
2023/04/02 01:37:49;;;;;;;5.25;1.10;;;2.40;69.00;;;;;;4067274;29;20036;-84
2023/04/02 01:40:21;;;;;;;8.32;1.15;;;2.50;69.10;;;;;;4060065;29;20595;-84
2023/04/02 01:42:32;;;;;;;6.35;0.98;;;2.50;69.10;;;;;;4059122;29;20044;-83
2023/04/02 01:44:50;;;;;;;5.93;1.48;;;2.50;69.00;;;;;;4071130;29;20109;-84
2023/04/02 01:46:52;;;;;;;4.88;0.95;;;2.50;68.80;;;;;;4056439;29;20645;-87
2023/04/02 01:48:54;;;;;;;4.90;0.60;;;2.40;68.70;;;;;;4042004;29;20159;-84
2023/04/02 01:50:56;;;;;;;2.58;0.70;;;2.40;68.70;;;;;;4079127;29;20580;-83
2023/04/02 01:53:03;;;;;;;5.55;0.93;;;2.50;68.60;;;;;;4075417;29;20527;-83
2023/04/02 01:55:05;;;;;;;2.78;0.80;;;2.50;68.10;;;;;;4062688;28;20040;-84
2023/04/02 01:57:07;;;;;;;2.65;0.90;;;2.50;67.70;;;;;;4077832;29;20036;-84
2023/04/02 01:59:10;;;;;;;5.28;0.70;;;2.50;67.50;;;;;;4092399;28;20023;-83
2023/04/02 02:01:18;;;;;;;1.83;0.50;;;2.50;67.10;;;;;;4089294;28;20028;-85
2023/04/02 02:03:20;;;;;;;5.68;1.10;;;2.40;66.50;;;;;;4103490;28;20035;-84
2023/04/02 02:05:22;;;;;;;6.70;0.90;;;2.40;66.40;;;;;;4107595;28;20027;-84
2023/04/02 02:07:23;;;;;;;3.90;0.60;;;2.50;65.80;;;;;;4107027;28;20057;-83
2023/04/02 02:09:27;;;;;;;2.72;0.70;;;2.40;66.00;;;;;;4092795;28;20078;-84
2023/04/02 02:11:32;;;;;;;1.20;0.50;;;2.40;65.70;;;;;;4071383;29;20032;-83
2023/04/02 02:13:33;;;;;;;2.88;0.63;;;2.40;65.80;;;;;;4111229;28;20031;-84
2023/04/02 02:15:35;;;;;;;4.90;0.82;;;2.50;65.90;;;;;;4079211;28;20047;-84
2023/04/02 02:17:36;;;;;;;2.67;0.63;;;2.30;65.40;;;;;;4081119;29;20513;-83
2023/04/02 02:19:50;;;;;;;2.00;0.60;;;2.30;65.00;;;;;;4095597;28;20018;-84
2023/04/02 02:21:55;;;;;;;5.57;1.10;;;2.40;64.90;;;;;;4081854;29;20039;-84
2023/04/02 02:23:56;;;;;;;2.55;0.70;;;2.40;64.70;;;;;;4077498;29;20103;-85
2023/04/02 02:25:57;;;;;;;3.00;0.60;;;2.30;65.00;;;;;;4094515;28;20031;-84
2023/04/02 02:28:05;;;;;;;1.70;0.55;;;2.30;65.00;;;;;;4128204;28;20113;-84
2023/04/02 02:30:14;;;;;;;3.42;0.60;;;2.30;64.60;;;;;;4112650;28;20066;-84
2023/04/02 02:32:19;;;;;;;3.78;0.60;;;2.30;64.20;;;;;;4126911;28;20469;-84
2023/04/02 02:34:40;;;;;;;6.45;1.00;;;2.30;64.20;;;;;;4113091;28;20026;-85
2023/04/02 02:36:53;;;;;;;1.55;0.50;;;2.30;64.60;;;;;;4104740;28;20050;-83
2023/04/02 02:39:01;;;;;;;2.38;0.60;;;2.30;64.70;;;;;;4107896;28;20023;-83
2023/04/02 02:41:16;;;;;;;1.40;0.65;;;2.30;64.50;;;;;;4091513;28;20031;-84
2023/04/02 02:43:25;;;;;;;3.78;0.50;;;2.30;64.00;;;;;;4095219;28;20032;-84
2023/04/02 02:45:47;;;;;;;1.88;0.50;;;2.30;63.90;;;;;;4092499;28;20043;-83
2023/04/02 02:47:51;;;;;;;5.50;0.77;;;2.30;63.70;;;;;;4075381;29;20071;-83
2023/04/02 02:50:06;;;;;;;6.95;0.73;;;2.30;63.80;;;;;;4120511;28;20035;-84
2023/04/02 02:52:08;;;;;;;5.38;0.50;;;2.20;63.40;;;;;;4113922;28;20037;-83
2023/04/02 02:54:12;;;;;;;1.80;0.50;;;2.10;63.20;;;;;;4080018;29;20031;-84
2023/04/02 02:56:13;;;;;;;3.95;0.90;;;2.20;63.30;;;;;;4091488;28;20182;-83
2023/04/02 02:58:18;;;;;;;1.05;0.30;;;2.20;63.20;;;;;;4108714;28;20046;-83
2023/04/02 03:00:19;;;;;;;1.63;0.50;;;2.20;63.20;;;;;;4108855;28;20054;-85
2023/04/02 03:02:22;;;;;;;1.17;0.40;;;2.20;63.20;;;;;;4127848;28;20023;-84
2023/04/02 03:04:23;;;;;;;4.07;0.40;;;2.20;63.30;;;;;;4111469;28;20246;-83
2023/04/02 03:06:24;;;;;;;0.93;0.38;;;2.20;63.50;;;;;;4092312;28;20576;-84
2023/04/02 03:09:00;;;;;;;3.45;0.60;;;2.20;63.60;;;;;;4089552;28;20055;-83
2023/04/02 03:11:22;;;;;;;1.90;0.65;;;2.10;63.20;;;;;;4087822;28;20073;-83
2023/04/02 03:13:31;;;;;;;2.22;0.57;;;2.20;63.40;;;;;;4111603;28;20045;-84
2023/04/02 03:15:55;;;;;;;2.85;0.30;;;2.20;63.40;;;;;;4124931;28;20046;-83
2023/04/02 03:18:01;;;;;;;4.65;0.63;;;2.20;63.10;;;;;;4085133;28;20090;-83
2023/04/02 03:20:30;;;;;;;3.13;0.32;;;2.20;63.20;;;;;;4113469;28;20511;-84
2023/04/02 03:23:16;;;;;;;1.13;0.30;;;2.20;62.90;;;;;;4097535;28;20421;-84
2023/04/02 03:25:44;;;;;;;1.52;0.50;;;2.10;62.60;;;;;;4110521;28;20424;-84
2023/04/02 03:28:11;;;;;;;4.30;0.65;;;2.10;62.30;;;;;;4108622;28;20887;-84
2023/04/02 03:30:49;;;;;;;7.32;0.60;;;2.10;62.60;;;;;;4111697;28;20386;-84
2023/04/02 03:33:20;;;;;;;2.88;0.63;;;2.10;63.10;;;;;;4112234;28;20077;-83
2023/04/02 03:36:09;;;;;;;1.90;0.20;;;2.20;62.90;;;;;;4113932;28;20440;-84
2023/04/02 03:38:32;;;;;;;2.78;0.30;;;2.10;62.50;;;;;;4128446;28;20154;-86
2023/04/02 03:41:17;;;;;;;1.63;0.60;;;2.10;62.50;;;;;;4103832;28;20074;-84
2023/04/02 03:43:46;;;;;;;3.03;0.65;;;2.00;62.30;;;;;;4119112;28;20023;-84
2023/04/02 03:46:21;;;;;;;2.05;0.60;;;2.10;62.70;;;;;;4115209;28;22052;-84
2023/04/02 03:48:43;;;;;;;3.35;0.52;;;2.10;62.70;;;;;;4116086;28;20043;-83
2023/04/02 03:51:03;;;;;;;1.30;0.30;;;2.10;62.90;;;;;;4096407;28;20556;-84
2023/04/02 03:53:04;;;;;;;3.38;0.35;;;2.10;63.10;;;;;;4117926;28;20026;-84
2023/04/02 03:55:18;;;;;;;1.25;0.20;;;2.20;63.10;;;;;;4117076;28;20049;-83
2023/04/02 03:57:51;;;;;;;1.88;0.40;;;2.20;63.00;;;;;;4118575;28;20053;-84
2023/04/02 04:00:28;;;;;;;2.92;0.50;;;2.10;63.10;;;;;;4117867;28;20035;-85
2023/04/02 04:02:44;;;;;;;2.25;0.40;;;2.00;63.00;;;;;;4118980;28;20622;-84
2023/04/02 04:04:47;;;;;;;4.25;0.40;;;2.10;63.20;;;;;;4096082;28;21836;-84
2023/04/02 04:06:51;;;;;;;1.88;0.30;;;2.10;63.20;;;;;;4119011;28;20571;-84
2023/04/02 04:08:58;;;;;;;1.60;0.45;;;2.10;63.10;;;;;;4114305;28;20568;-84
2023/04/02 04:11:03;;;;;;;1.25;0.50;;;2.00;63.10;;;;;;4111202;28;20196;-85
2023/04/02 04:13:11;;;;;;;2.25;0.40;;;2.10;63.30;;;;;;4100320;28;20563;-84
2023/04/02 04:15:21;;;;;;;1.02;0.40;;;2.00;63.20;;;;;;4096149;28;20152;-84
2023/04/02 04:17:50;;;;;;;6.40;0.40;;;2.10;63.30;;;;;;4096416;28;20698;-84
2023/04/02 04:20:00;;;;;;;3.85;0.50;;;2.10;63.10;;;;;;4094441;28;20680;-83
2023/04/02 04:22:09;;;;;;;3.63;0.30;;;2.00;63.10;;;;;;4110950;28;20806;-84
2023/04/02 04:24:22;;;;;;;1.33;0.25;;;1.90;63.00;;;;;;4115000;28;20559;-83
2023/04/02 04:26:40;;;;;;;2.53;0.50;;;1.90;63.10;;;;;;4094708;28;20692;-84
2023/04/02 04:29:04;;;;;;;1.33;0.30;;;2.00;63.20;;;;;;4112060;28;20340;-85
2023/04/02 04:31:19;;;;;;;4.38;0.52;;;1.90;63.20;;;;;;4123967;28;20607;-83
2023/04/02 04:33:39;;;;;;;0.93;0.30;;;1.90;63.10;;;;;;4111608;28;20556;-84
2023/04/02 04:35:54;;;;;;;1.48;0.30;;;1.90;63.10;;;;;;4115060;28;20038;-84
2023/04/02 04:38:13;;;;;;;2.08;0.30;;;2.00;63.00;;;;;;4104961;28;20504;-84
2023/04/02 04:40:21;;;;;;;1.08;0.30;;;2.00;63.00;;;;;;4109756;28;20516;-83
2023/04/02 04:42:33;;;;;;;1.63;0.52;;;2.00;63.00;;;;;;4094224;28;20513;-85
2023/04/02 04:44:48;;;;;;;0.70;0.30;;;2.00;63.00;;;;;;4088574;28;20590;-84
2023/04/02 04:47:01;;;;;;;3.50;0.35;;;1.90;63.10;;;;;;4109405;28;20042;-83
2023/04/02 04:49:10;;;;;;;1.42;0.30;;;2.00;63.30;;;;;;4111593;28;20571;-84
2023/04/02 04:51:19;;;;;;;1.17;0.45;;;2.00;63.30;;;;;;4109155;28;20031;-84
2023/04/02 04:53:22;;;;;;;3.47;0.40;;;2.00;63.50;;;;;;4091800;28;20437;-84
2023/04/02 04:55:26;;;;;;;3.10;0.50;;;2.00;63.80;;;;;;4088968;28;20410;-85
2023/04/02 04:57:31;;;;;;;1.73;0.30;;;2.00;63.80;;;;;;4104249;28;20390;-84
2023/04/02 04:59:44;;;;;;;3.30;0.40;;;2.00;63.80;;;;;;4098059;28;20102;-84
2023/04/02 05:02:11;;;;;;;1.48;0.47;;;1.90;64.10;;;;;;4101574;28;20839;-85
2023/04/02 05:04:24;;;;;;;4.07;0.57;;;1.90;64.20;;;;;;4116893;28;20038;-84
2023/04/02 05:06:37;;;;;;;;;;;1.80;64.40;;;;;;4113368;28;20026;-83
2023/04/02 05:08:44;;;;;;;1.85;0.30;;;1.80;64.70;;;;;;4109439;28;20292;-84
2023/04/02 05:11:27;;;;;;;1.75;0.45;;;1.80;65.40;;;;;;4111454;28;20058;-84
2023/04/02 05:13:53;;;;;;;2.80;0.43;;;1.80;64.80;;;;;;4079920;29;20036;-84
2023/04/02 05:16:21;;;;;;;2.47;0.40;;;1.80;65.10;;;;;;4078584;29;20095;-84
2023/04/02 05:18:45;;;;;;;2.25;0.47;;;1.80;65.20;;;;;;4064573;29;20210;-84
2023/04/02 05:21:25;;;;;;;5.40;0.55;;;1.70;65.10;;;;;;4064382;29;20625;-84
2023/04/02 05:23:54;;;;;;;3.47;0.60;;;1.70;64.90;;;;;;4064622;29;20673;-84
2023/04/02 05:26:48;;;;;;;2.13;0.30;;;1.80;64.90;;;;;;4072505;29;20038;-84
2023/04/02 05:29:21;;;;;;;5.22;0.60;;;1.80;64.60;;;;;;4051172;29;20493;-85
2023/04/02 05:31:48;;;;;;;9.75;0.40;;;1.80;64.30;;;;;;4048005;29;20527;-85
2023/04/02 05:34:11;;;;;;;2.22;0.40;;;1.90;64.40;;;;;;4048123;29;20613;-84
2023/04/02 05:36:32;;;;;;;1.52;0.40;;;1.90;64.60;;;;;;4034805;29;20053;-84
2023/04/02 05:38:36;;;;;;;5.95;0.77;;;1.90;64.50;;;;;;4019003;29;20033;-84
2023/04/02 05:40:44;;;;;;;2.90;0.50;;;1.90;64.20;;;;;;4033482;29;20631;-84
2023/04/02 05:42:49;;;;;;;3.40;0.40;;;1.90;63.50;;;;;;4034721;29;20033;-84
2023/04/02 05:45:03;;;;;;;6.32;0.50;;;1.90;62.90;;;;;;4038460;29;20025;-84
2023/04/02 05:47:20;;;;;;;4.35;0.60;;;2.00;62.80;;;;;;4053160;29;20738;-84
2023/04/02 05:49:32;;;;;;;3.63;0.50;;;2.00;62.50;;;;;;4053528;29;20523;-85
2023/04/02 05:51:43;;;;;;;1.08;0.32;;;1.90;61.90;;;;;;4082690;29;20549;-84
2023/04/02 05:53:50;;;;;;;1.63;0.40;;;2.00;61.70;;;;;;4068942;29;20078;-86
2023/04/02 05:55:57;;;;;;;4.00;0.40;;;2.00;61.80;;;;;;4066672;29;20100;-84
2023/04/02 05:58:03;;;;;;;3.13;0.77;;;2.10;62.20;;;;;;4052263;29;20621;-84
2023/04/02 06:00:12;;;;;;;6.60;0.60;;;2.20;62.60;;;;;;4069907;29;20046;-84
2023/04/02 06:02:32;;;;;;;2.38;0.30;;;2.20;62.80;;;;;;4069510;29;20511;-84
2023/04/02 06:04:48;;;;;;;1.35;0.28;;;2.30;62.90;;;;;;4071404;28;20689;-84
2023/04/02 06:07:04;;;;;;;3.13;0.40;;;2.30;63.00;;;;;;4133396;28;20658;-85
2023/04/02 06:09:14;;;;;;;2.90;0.55;;;2.30;62.50;;;;;;4111841;28;20039;-84
2023/04/02 06:11:30;;;;;;;8.55;0.80;;;2.40;62.60;;;;;;4131092;28;20655;-84
2023/04/02 06:13:30;;;;;;;3.85;0.50;;;2.40;61.60;;;;;;4101747;28;20188;-84
2023/04/02 06:15:33;;;;;;;3.28;0.50;;;2.50;61.50;;;;;;4115162;28;20047;-84
2023/04/02 06:18:00;;;;;;;3.55;0.40;;;2.50;61.50;;;;;;4097942;28;20051;-83
2023/04/02 06:20:02;;;;;;;1.35;0.30;;;2.50;61.70;;;;;;4095607;28;20035;-84
2023/04/02 06:22:21;;;;;;;2.87;0.30;;;2.60;61.90;;;;;;4115045;28;20030;-84
2023/04/02 06:24:24;;;;;;;2.55;0.40;;;2.60;61.80;;;;;;4110134;28;20328;-85
2023/04/02 06:26:40;;;;;;;2.47;0.38;;;2.60;61.30;;;;;;4097708;28;20399;-84
2023/04/02 06:28:50;;;;;;;2.40;0.47;;;2.70;61.60;;;;;;4116368;28;20038;-84
2023/04/02 06:30:56;;;;;;;3.35;0.40;;;2.80;61.30;;;;;;4097298;28;20031;-84
2023/04/02 06:32:57;;;;;;;6.53;0.40;;;2.80;61.10;;;;;;4117688;28;20038;-84
2023/04/02 06:34:58;;;;;;;2.60;0.45;;;2.80;60.70;;;;;;4119070;28;20035;-84
2023/04/02 06:37:02;;;;;;;2.85;0.30;;;2.90;60.70;;;;;;4132036;28;20057;-84
2023/04/02 06:39:10;;;;;;;2.40;0.40;;;2.90;60.90;;;;;;4102249;28;20043;-84
2023/04/02 06:41:18;;;;;;;2.85;0.60;;;3.00;60.50;;;;;;4116438;28;20050;-83
2023/04/02 06:43:48;;;;;;;2.17;0.43;;;2.90;60.00;;;;;;4118460;28;20046;-84
2023/04/02 06:45:53;;;;;;;2.08;0.57;;;2.90;59.00;;;;;;4117087;28;20043;-84
2023/04/02 06:47:58;;;;;;;2.47;0.68;;;3.00;59.40;;;;;;4111982;28;20023;-84
2023/04/02 06:50:21;;;;;;;3.60;0.50;;;3.10;59.20;;;;;;4096043;28;20027;-84
2023/04/02 06:52:26;;;;;;;6.57;0.63;;;3.10;59.50;;;;;;4089443;29;20036;-84
2023/04/02 06:54:27;;;;;;;1.73;0.43;;;3.00;59.30;;;;;;4112146;28;20070;-84
2023/04/02 06:56:37;;;;;;;2.00;0.57;;;3.10;59.50;;;;;;4121835;28;20090;-85
2023/04/02 06:58:37;;;;;;;1.20;0.40;;;3.20;59.30;;;;;;4103985;28;20470;-86
2023/04/02 07:00:42;;;;;;;1.58;0.40;;;3.20;59.30;;;;;;4118028;28;20037;-86
2023/04/02 07:02:43;;;;;;;2.25;0.40;;;3.20;58.70;;;;;;4131556;28;20026;-84
2023/04/02 07:04:44;;;;;;;3.10;0.50;;;3.20;58.30;;;;;;4102299;28;20481;-85
2023/04/02 07:06:44;;;;;;;0.40;0.30;;;3.30;57.90;;;;;;4117455;28;20042;-84
2023/04/02 07:08:46;;;;;;;1.90;0.50;;;3.30;58.30;;;;;;4102648;28;20038;-85
2023/04/02 07:10:47;;;;;;;3.25;0.45;;;3.30;58.40;;;;;;4133273;28;20049;-85
2023/04/02 07:12:48;;;;;;;2.80;0.60;;;3.30;58.40;;;;;;4113812;28;20030;-84
2023/04/02 07:14:49;;;;;;;3.20;0.68;;;3.40;58.30;;;;;;4082195;29;20115;-85
2023/04/02 07:16:50;;;;;;;4.28;0.60;;;3.40;58.20;;;;;;4113286;28;20038;-84
2023/04/02 07:18:52;;;;;;;2.88;0.85;;;3.50;57.90;;;;;;4113109;28;20034;-85
2023/04/02 07:20:53;;;;;;;1.67;0.50;;;3.50;57.60;;;;;;4098284;28;20798;-84
2023/04/02 07:22:54;;;;;;;2.85;0.60;;;3.50;57.90;;;;;;4114543;28;20023;-84
2023/04/02 07:24:55;;;;;;;3.08;0.50;;;3.60;56.80;;;;;;4098413;28;20034;-84
2023/04/02 07:26:56;;;;;;;4.45;0.47;;;3.50;56.50;;;;;;4096754;28;20019;-84
2023/04/02 07:28:56;;;;;;;2.35;0.40;;;3.60;56.90;;;;;;4113111;28;20203;-83
2023/04/02 07:30:58;;;;;;;1.75;0.30;;;3.60;56.60;;;;;;4110297;28;20054;-83
2023/04/02 07:32:59;;;;;;;3.42;0.60;;;3.70;56.50;;;;;;4112273;28;20497;-83
2023/04/02 07:34:59;;;;;;;1.27;0.40;;;3.70;56.20;;;;;;4105949;28;20019;-84
2023/04/02 07:37:01;;;;;;;2.35;0.40;;;3.70;56.90;;;;;;4089521;28;20710;-84
2023/04/02 07:39:02;;;;;;;4.70;0.40;;;3.90;56.70;;;;;;4094319;28;20074;-84
2023/04/02 07:41:06;;;;;;;1.20;0.40;;;3.80;56.60;;;;;;4106458;28;20055;-85
2023/04/02 07:43:07;;;;;;;1.33;0.40;;;3.90;56.50;;;;;;4114377;28;20432;-85
2023/04/02 07:45:08;;;;;;;1.35;0.70;;;3.90;56.70;;;;;;4113869;28;20031;-84
2023/04/02 07:47:09;;;;;;;1.17;0.28;;;3.90;57.00;;;;;;4098393;28;20035;-84
2023/04/02 07:49:10;;;;;;;2.70;0.50;;;4.00;56.80;;;;;;4115078;28;20034;-84
2023/04/02 07:51:15;;;;;;;3.72;0.65;;;4.00;57.20;;;;;;4115226;28;20034;-84
2023/04/02 07:53:42;;;;;;;1.48;0.43;;;4.10;57.00;;;;;;4096829;28;20592;-83
2023/04/02 07:55:43;;;;;;;2.38;0.40;;;4.20;56.40;;;;;;4077309;29;20047;-83
2023/04/02 07:57:48;;;;;;;5.93;0.32;;;4.20;56.90;;;;;;4080963;29;20562;-84
2023/04/02 07:59:49;;;;;;;2.92;0.50;;;4.30;56.70;;;;;;4062338;29;20075;-85
2023/04/02 08:01:52;;;;;;;2.13;0.47;;;4.30;55.50;;;;;;4065634;29;20146;-85
2023/04/02 08:03:54;;;;;;;2.00;0.63;;;4.30;55.60;;;;;;4082245;29;20084;-85
2023/04/02 08:05:57;;;;;;;1.88;0.43;;;4.30;55.80;;;;;;4050730;29;20036;-86
2023/04/02 08:08:18;;;;;;;2.92;0.57;;;4.40;55.30;;;;;;4081675;29;20091;-85
2023/04/02 08:10:19;;;;;;;1.92;0.43;;;4.40;54.70;;;;;;4064754;29;20611;-86
2023/04/02 08:12:39;;;;;;;4.50;0.52;;;4.30;54.30;;;;;;4067393;29;20040;-85
2023/04/02 08:15:00;;;;;;;2.22;0.50;;;4.40;53.30;;;;;;4081066;29;20773;-84
2023/04/02 08:17:29;;;;;;;4.13;0.90;;;4.40;53.40;;;;;;4075993;29;20136;-84
2023/04/02 08:19:50;;;;;;;1.38;0.63;;;4.50;53.60;;;;;;4077726;29;20035;-85
2023/04/02 08:22:11;;;;;;;2.30;0.30;;;4.50;53.20;;;;;;4081264;29;20457;-85
2023/04/02 08:24:32;;;;;;;1.55;0.40;;;4.60;53.20;;;;;;4064094;29;20955;-84
2023/04/02 08:26:53;;;;;;;0.98;0.30;;;4.60;53.10;;;;;;4076509;29;20393;-85
2023/04/02 08:29:13;;;;;;;1.70;0.47;;;4.60;52.50;;;;;;4076403;29;20662;-84
2023/04/02 08:31:34;;;;;;;2.97;0.52;;;4.70;52.60;;;;;;4076857;29;20537;-84
2023/04/02 08:33:55;;;;;;;1.85;0.28;;;4.70;52.40;;;;;;4107044;28;20778;-84
2023/04/02 08:36:17;;;;;;;1.50;0.40;;;4.80;53.20;;;;;;4103198;28;20761;-84
2023/04/02 08:38:38;;;;;;;2.45;0.50;;;4.90;54.10;;;;;;4116583;28;20045;-84
2023/04/02 08:41:01;;;;;;;2.50;0.52;;;4.90;54.10;;;;;;4102257;28;20424;-83
2023/04/02 08:43:51;;;;;;;1.35;0.20;;;5.00;53.50;;;;;;4097469;28;20039;-83
2023/04/02 08:46:29;;;;;;;1.65;0.35;;;5.10;53.60;;;;;;4094562;28;20652;-84
2023/04/02 08:49:00;;;;;;;2.45;0.50;;;5.10;55.00;;;;;;4108166;28;20401;-84
2023/04/02 08:51:33;;;;;;;3.30;0.55;;;5.20;53.70;;;;;;4105327;28;20031;-84
2023/04/02 08:53:59;;;;;;;3.20;0.55;;;5.20;52.50;;;;;;4108286;28;20043;-86
2023/04/02 08:56:26;;;;;;;2.35;0.43;;;5.20;52.30;;;;;;4090712;28;20408;-85
2023/04/02 08:58:52;;;;;;;3.15;0.45;;;5.30;51.20;;;;;;4109284;28;20516;-85
2023/04/02 09:00:54;;;;;;;1.88;0.40;;;5.30;51.10;;;;;;4088566;28;20772;-83
2023/04/02 09:03:05;;;;;;;0.90;0.30;;;5.30;51.50;;;;;;4094108;28;20067;-85
2023/04/02 09:05:14;;;;;;;1.85;0.50;;;5.40;52.40;;;;;;4110207;28;20031;-85
2023/04/02 09:07:16;;;;;;;1.95;0.47;;;5.40;52.20;;;;;;4094462;28;20050;-85
2023/04/02 09:09:18;;;;;;;2.28;0.52;;;5.50;52.70;;;;;;4109346;28;20382;-84
2023/04/02 09:11:55;;;;;;;4.75;0.60;;;5.40;51.20;;;;;;4093324;28;20106;-84
2023/04/02 09:13:59;;;;;;;3.90;0.60;;;5.60;51.80;;;;;;4094914;28;20039;-85
2023/04/02 09:16:09;;;;;;;2.60;0.60;;;5.50;52.30;;;;;;4096699;28;20524;-84
2023/04/02 09:18:16;;;;;;;3.10;0.50;;;5.60;53.40;;;;;;4127766;28;20489;-85
2023/04/02 09:20:26;;;;;;;2.35;0.60;;;5.60;54.00;;;;;;4094067;28;20692;-87
2023/04/02 09:22:32;;;;;;;2.70;0.52;;;5.70;53.70;;;;;;4110614;28;20096;-85
2023/04/02 09:24:33;;;;;;;1.27;0.63;;;5.70;52.80;;;;;;4109195;28;20567;-85
2023/04/02 09:26:35;;;;;;;2.05;0.50;;;5.80;52.10;;;;;;4094347;28;20050;-84
2023/04/02 09:28:37;;;;;;;1.83;0.50;;;5.80;51.30;;;;;;4108272;28;20034;-84
2023/04/02 09:30:57;;;;;;;0.73;0.35;;;5.80;52.00;;;;;;4092654;28;20507;-85
2023/04/02 09:33:06;;;;;;;1.05;0.40;;;5.90;52.20;;;;;;4090304;28;20055;-85
2023/04/02 09:35:15;;;;;;;2.40;0.55;;;5.90;52.00;;;;;;4090345;28;20035;-84
2023/04/02 09:37:21;;;;;;;1.13;0.25;;;6.00;52.30;;;;;;4123430;28;20034;-86
2023/04/02 09:39:27;;;;;;;3.08;0.40;;;6.10;51.90;;;;;;4110768;28;20138;-85
2023/04/02 09:41:29;;;;;;;2.58;0.50;;;6.10;51.00;;;;;;4110900;28;20505;-84
2023/04/02 09:43:35;;;;;;;4.15;0.82;;;6.10;51.10;;;;;;4112692;28;20105;-85
2023/04/02 09:45:36;;;;;;;2.42;0.52;;;6.10;51.80;;;;;;4108406;28;20235;-86
2023/04/02 09:47:38;;;;;;;2.75;0.90;;;6.10;51.10;;;;;;4111739;28;20154;-85
2023/04/02 09:49:39;;;;;;;3.33;0.73;;;6.20;51.60;;;;;;4090577;28;20133;-85
2023/04/02 09:51:40;;;;;;;3.05;0.70;;;6.10;50.70;;;;;;4112067;28;20022;-85
2023/04/02 09:53:43;;;;;;;2.58;0.70;;;6.20;51.70;;;;;;4108964;28;20663;-84
2023/04/02 09:55:44;;;;;;;;;;;6.20;52.00;;;;;;4124924;28;20788;-84
2023/04/02 09:57:47;;;;;;;2.00;0.50;;;6.30;52.40;;;;;;4095711;28;19914;-85
2023/04/02 10:00:06;;;;;;;5.22;1.10;;;6.30;52.60;;;;;;4125034;28;20030;-85
2023/04/02 10:02:28;;;;;;;6.85;0.70;;;6.50;52.80;;;;;;4092242;28;22038;-84
2023/04/02 10:04:44;;;;;;;3.25;1.38;;;6.50;52.20;;;;;;4109996;28;20129;-84
2023/04/02 10:06:49;;;;;;;3.00;0.90;;;6.50;53.20;;;;;;4095376;28;20035;-85
2023/04/02 10:08:50;;;;;;;3.55;1.30;;;6.50;52.80;;;;;;4110614;28;20179;-86
2023/04/02 10:10:55;;;;;;;4.40;0.80;;;6.50;53.50;;;;;;4094057;28;20066;-85
2023/04/02 10:13:14;;;;;;;3.33;1.13;;;6.60;53.80;;;;;;4097648;28;20031;-85
2023/04/02 10:15:21;;;;;;;1.45;0.70;;;6.60;52.80;;;;;;4080742;29;20596;-85
2023/04/02 10:17:31;;;;;;;3.10;0.50;;;6.60;52.20;;;;;;4092419;28;20157;-86
2023/04/02 10:19:36;;;;;;;3.65;0.68;;;6.70;51.30;;;;;;4079844;29;20095;-86
2023/04/02 10:21:39;;;;;;;6.88;0.77;;;6.70;50.30;;;;;;4093233;28;20035;-85
2023/04/02 10:23:40;;;;;;;2.17;0.40;;;6.70;49.50;;;;;;4097014;28;20036;-85
2023/04/02 10:25:54;;;;;;;1.63;0.45;;;6.70;49.80;;;;;;4111747;28;20590;-84
2023/04/02 10:28:23;;;;;;;1.67;0.50;;;6.80;48.40;;;;;;4108531;28;20105;-87
2023/04/02 10:30:58;;;;;;;4.60;0.40;;;6.80;48.90;;;;;;4107570;28;20019;-85
2023/04/02 10:33:06;;;;;;;1.23;0.32;;;6.90;46.80;;;;;;4093865;28;20948;-87
2023/04/02 10:35:07;;;;;;;0.68;0.20;;;6.90;45.60;;;;;;4095907;28;20704;-85
2023/04/02 10:37:26;;;;;;;2.20;0.40;;;6.90;47.40;;;;;;4080481;29;20540;-84
2023/04/02 10:39:46;;;;;;;4.05;0.73;;;6.80;44.60;;;;;;4107845;28;20616;-85
2023/04/02 10:41:52;;;;;;;2.53;0.60;;;6.90;44.90;;;;;;4121576;28;20409;-86
2023/04/02 10:44:14;;;;;;;1.48;0.68;;;6.90;46.40;;;;;;4076011;29;20515;-84
2023/04/02 10:46:22;;;;;;;2.45;0.52;;;6.90;45.70;;;;;;4092248;28;20579;-86
2023/04/02 10:48:45;;;;;;;2.08;0.30;;;7.00;45.60;;;;;;4110004;28;20023;-85
2023/04/02 10:50:59;;;;;;;4.25;0.50;;;7.00;43.90;;;;;;4076691;29;20039;-86
2023/04/02 10:53:20;;;;;;;1.63;0.50;;;6.90;42.30;;;;;;4093357;28;20027;-87
2023/04/02 10:55:27;;;;;;;1.75;0.65;;;7.00;43.40;;;;;;4095678;28;20070;-86
2023/04/02 10:57:38;;;;;;;3.15;0.47;;;7.00;44.70;;;;;;4107183;28;20161;-86
2023/04/02 10:59:45;;;;;;;3.45;0.80;;;7.00;45.60;;;;;;4106357;28;20038;-84
2023/04/02 11:01:47;;;;;;;6.25;0.77;;;7.00;44.80;;;;;;4092211;28;20109;-85
2023/04/02 11:03:52;;;;;;;;;;;7.10;43.90;;;;;;4109426;28;20030;-85
2023/04/02 11:05:57;;;;;;;4.45;0.60;;;7.10;43.10;;;;;;4108105;28;19955;-85
2023/04/02 11:08:33;;;;;;;4.15;0.55;;;7.10;43.70;;;;;;4106295;28;20091;-86
2023/04/02 11:10:38;;;;;;;3.90;0.73;;;7.10;44.00;;;;;;4122443;28;20031;-85
2023/04/02 11:12:45;;;;;;;2.55;0.60;;;7.20;43.90;;;;;;4125529;28;20035;-87
2023/04/02 11:14:47;;;;;;;2.55;0.73;;;7.20;43.20;;;;;;4112440;28;20064;-85
2023/04/02 11:16:50;;;;;;;2.57;0.40;;;7.20;43.00;;;;;;4086910;29;20036;-85
2023/04/02 11:19:13;;;;;;;4.50;0.55;;;7.20;43.10;;;;;;4101033;28;20719;-85
2023/04/02 11:21:32;;;;;;;2.15;0.55;;;7.20;43.90;;;;;;4102386;28;20598;-86
2023/04/02 11:23:37;;;;;;;5.78;0.60;;;7.20;42.40;;;;;;4079798;29;20032;-85
2023/04/02 11:25:42;;;;;;;2.38;0.57;;;7.20;42.10;;;;;;4095004;28;20090;-84
2023/04/02 11:27:42;;;;;;;1.15;0.40;;;7.30;44.20;;;;;;4094598;28;20111;-85
2023/04/02 11:30:03;;;;;;;4.45;0.70;;;7.30;43.30;;;;;;4113681;28;20022;-85
2023/04/02 11:32:19;;;;;;;1.73;0.50;;;7.30;43.00;;;;;;4110686;28;20054;-84
2023/04/02 11:34:40;;;;;;;2.08;0.50;;;7.30;43.60;;;;;;4097774;28;20127;-81
2023/04/02 11:37:18;;;;;;;3.13;0.50;;;7.40;41.20;;;;;;4092242;28;20059;-87
2023/04/02 11:39:57;;;;;;;5.50;0.88;;;7.30;39.30;;;;;;4109195;28;20042;-84
2023/04/02 11:42:16;;;;;;;1.75;0.38;;;7.30;37.70;;;;;;4104871;28;20494;-84